createdAt,value
2022-08-03T00:02:19.367Z,21.31
2022-08-03T00:04:46.831Z,21.23
2022-08-03T00:07:14.522Z,21.18
2022-08-03T00:09:42.569Z,21.17
2022-08-03T00:12:10.246Z,21.15
2022-08-03T00:14:38.703Z,21.12
2022-08-03T00:17:06.507Z,21.07
2022-08-03T00:19:34.655Z,21.01
2022-08-03T00:22:01.902Z,20.93
2022-08-03T00:24:30.995Z,20.89
2022-08-03T00:26:58.658Z,20.86
2022-08-03T00:29:26.013Z,20.85
2022-08-03T00:32:00.229Z,20.83
2022-08-03T00:34:57.224Z,20.79
2022-08-03T00:37:17.062Z,20.83
2022-08-03T00:39:46.986Z,20.91
2022-08-03T00:42:14.657Z,20.94
2022-08-03T00:44:45.256Z,20.96
2022-08-03T00:47:12.832Z,20.97
2022-08-03T00:49:41.326Z,20.97
2022-08-03T00:52:11.154Z,20.96
2022-08-03T00:54:39.405Z,20.94
2022-08-03T00:57:07.471Z,20.93
2022-08-03T00:59:35.214Z,20.89
2022-08-03T01:02:02.912Z,20.86
2022-08-03T01:04:30.254Z,20.85
2022-08-03T01:07:13.377Z,20.84
2022-08-03T01:10:00.294Z,20.86
2022-08-03T01:13:07.686Z,20.86
2022-08-03T01:15:59.110Z,20.80
2022-08-03T01:18:45.101Z,20.75
2022-08-03T01:21:35.299Z,20.73
2022-08-03T01:24:03.051Z,20.66
2022-08-03T01:26:42.201Z,20.60
2022-08-03T01:29:09.798Z,20.56
2022-08-03T01:32:53.593Z,20.59
2022-08-03T01:34:35.282Z,20.59
2022-08-03T01:37:07.178Z,20.58
2022-08-03T01:39:39.733Z,20.51
2022-08-03T01:42:11.698Z,20.49
2022-08-03T01:44:43.462Z,20.51
2022-08-03T01:47:12.644Z,20.51
2022-08-03T01:49:45.226Z,20.53
2022-08-03T01:52:17.093Z,20.54
2022-08-03T01:54:48.502Z,20.55
2022-08-03T01:57:17.403Z,20.55
2022-08-03T01:59:48.193Z,20.58
2022-08-03T02:02:33.337Z,20.63
2022-08-03T02:05:05.631Z,20.68
2022-08-03T02:07:41.149Z,20.71
2022-08-03T02:10:11.573Z,20.73
2022-08-03T02:12:39.851Z,20.75
2022-08-03T02:15:08.235Z,20.76
2022-08-03T02:17:39.044Z,20.77
2022-08-03T02:20:11.155Z,20.79
2022-08-03T02:22:41.568Z,20.81
2022-08-03T02:25:14.046Z,20.84
2022-08-03T02:28:01.565Z,20.86
2022-08-03T02:30:38.336Z,20.87
2022-08-03T02:33:10.610Z,20.88
2022-08-03T02:35:40.741Z,20.87
2022-08-03T02:38:11.263Z,20.86
2022-08-03T02:40:40.465Z,20.87
2022-08-03T02:43:12.012Z,20.87
2022-08-03T02:45:45.813Z,20.88
2022-08-03T02:48:18.808Z,20.88
2022-08-03T02:50:48.313Z,20.88
2022-08-03T02:53:17.626Z,20.89
2022-08-03T02:55:47.524Z,20.91
2022-08-03T02:58:20.818Z,20.93
2022-08-03T03:00:51.744Z,20.93
2022-08-03T03:03:21.478Z,20.94
2022-08-03T03:05:55.790Z,20.95
2022-08-03T03:08:28.732Z,20.93
2022-08-03T03:11:00.740Z,20.92
2022-08-03T03:13:29.732Z,20.93
2022-08-03T03:16:01.287Z,20.93
2022-08-03T03:18:30.900Z,20.95
2022-08-03T03:20:59.273Z,20.98
2022-08-03T03:23:28.897Z,20.99
2022-08-03T03:25:58.692Z,21.00
2022-08-03T03:28:26.466Z,21.01
2022-08-03T03:30:54.430Z,21.02
2022-08-03T03:33:23.023Z,21.03
2022-08-03T03:35:51.641Z,21.03
2022-08-03T03:38:20.087Z,21.03
2022-08-03T03:40:48.258Z,21.02
2022-08-03T03:43:18.183Z,21.05
2022-08-03T03:45:47.284Z,21.07
2022-08-03T03:48:15.441Z,21.09
2022-08-03T03:50:43.912Z,21.10
2022-08-03T03:53:13.115Z,21.12
2022-08-03T03:55:59.348Z,21.13
2022-08-03T03:58:29.953Z,21.17
2022-08-03T04:00:57.366Z,21.20
2022-08-03T04:03:24.765Z,21.24
2022-08-03T04:06:11.479Z,21.28
2022-08-03T04:08:58.900Z,21.31
2022-08-03T04:11:39.566Z,21.36
2022-08-03T04:14:10.808Z,21.41
2022-08-03T04:16:43.823Z,21.44
2022-08-03T04:19:22.936Z,21.50
2022-08-03T04:21:57.258Z,21.60
2022-08-03T04:24:30.550Z,21.68
2022-08-03T04:27:00.984Z,21.79
2022-08-03T04:29:30.883Z,22.05
2022-08-03T04:32:00.412Z,22.60
2022-08-03T04:34:29.410Z,23.37
2022-08-03T04:37:01.461Z,24.25
2022-08-03T04:39:32.085Z,25.03
2022-08-03T04:42:08.095Z,25.85
2022-08-03T04:44:45.255Z,26.62
2022-08-03T04:47:13.612Z,26.79
2022-08-03T04:49:41.431Z,26.38
2022-08-03T04:52:10.148Z,25.96
2022-08-03T04:54:44.380Z,25.91
2022-08-03T04:57:23.069Z,25.77
2022-08-03T04:59:58.303Z,26.09
2022-08-03T05:02:31.027Z,27.06
2022-08-03T05:04:59.000Z,27.86
2022-08-03T05:07:26.254Z,28.16
2022-08-03T05:10:15.139Z,27.61
2022-08-03T05:12:47.372Z,28.04
2022-08-03T05:15:15.687Z,28.88
2022-08-03T05:17:43.307Z,29.63
2022-08-03T05:20:11.395Z,30.28
2022-08-03T05:22:40.092Z,30.82
2022-08-03T05:25:07.859Z,31.43
2022-08-03T05:27:35.805Z,31.89
2022-08-03T05:30:30.937Z,32.25
2022-08-03T05:32:53.163Z,32.68
2022-08-03T05:35:57.994Z,33.05
2022-08-03T05:38:09.238Z,33.51
2022-08-03T05:40:37.034Z,33.91
2022-08-03T05:43:04.482Z,34.13
2022-08-03T05:45:32.040Z,34.39
2022-08-03T05:47:59.913Z,34.62
2022-08-03T05:50:27.167Z,34.75
2022-08-03T05:52:57.895Z,34.91
2022-08-03T05:55:25.762Z,35.09
2022-08-03T05:57:53.023Z,35.15
2022-08-03T06:00:24.163Z,34.77
2022-08-03T06:02:53.501Z,33.96
2022-08-03T06:05:20.918Z,34.06
2022-08-03T06:07:48.385Z,34.61
2022-08-03T06:10:35.230Z,35.10
2022-08-03T06:13:04.081Z,35.54
2022-08-03T06:15:33.486Z,35.76
2022-08-03T06:18:02.250Z,35.96
2022-08-03T06:20:30.155Z,36.17
2022-08-03T06:23:01.021Z,36.63
2022-08-03T06:25:29.128Z,36.98
2022-08-03T06:27:57.133Z,37.23
2022-08-03T06:30:25.518Z,37.56
2022-08-03T06:32:52.755Z,37.76
2022-08-03T06:35:20.408Z,37.94
2022-08-03T06:37:50.476Z,38.15
2022-08-03T06:40:28.266Z,38.36
2022-08-03T06:42:57.249Z,38.57
2022-08-03T06:45:24.992Z,38.79
2022-08-03T06:48:07.134Z,38.98
2022-08-03T06:50:36.417Z,39.08
2022-08-03T06:53:05.081Z,39.02
2022-08-03T06:55:32.877Z,39.12
2022-08-03T06:58:03.444Z,39.39
2022-08-03T07:00:31.386Z,39.62
2022-08-03T07:02:59.077Z,39.73
2022-08-03T07:05:26.793Z,39.99
2022-08-03T07:07:58.856Z,40.19
2022-08-03T07:10:27.529Z,40.17
2022-08-03T07:12:56.507Z,40.09
2022-08-03T07:15:54.033Z,40.11
2022-08-03T07:18:13.389Z,40.17
2022-08-03T07:20:41.019Z,40.22
2022-08-03T07:23:09.509Z,40.21
2022-08-03T07:25:37.362Z,40.10
2022-08-03T07:28:04.918Z,40.23
2022-08-03T07:30:32.272Z,40.32
2022-08-03T07:33:00.144Z,40.39
2022-08-03T07:35:27.599Z,40.47
2022-08-03T07:37:55.222Z,40.46
2022-08-03T07:40:23.178Z,40.39
2022-08-03T07:42:54.280Z,40.41
2022-08-03T07:45:23.080Z,40.59
2022-08-03T07:47:53.218Z,40.65
2022-08-03T07:50:22.318Z,40.69
2022-08-03T07:52:52.855Z,40.68
2022-08-03T07:55:22.728Z,40.83
2022-08-03T08:01:22.307Z,40.94
2022-08-03T08:03:53.359Z,40.76
2022-08-03T08:06:21.483Z,40.61
2022-08-03T08:09:03.481Z,40.48
2022-08-03T08:11:39.743Z,40.37
2022-08-03T08:14:07.810Z,40.19
2022-08-03T08:16:35.058Z,40.22
2022-08-03T08:19:02.551Z,40.21
2022-08-03T08:21:59.818Z,40.27
2022-08-03T08:24:18.325Z,40.44
2022-08-03T08:26:47.929Z,40.43
2022-08-03T08:29:15.425Z,40.32
2022-08-03T08:31:42.939Z,40.09
2022-08-03T08:34:10.543Z,39.94
2022-08-03T08:36:37.667Z,39.91
2022-08-03T08:39:05.955Z,39.82
2022-08-03T08:41:37.586Z,39.71
2022-08-03T08:44:13.855Z,39.49
2022-08-03T08:46:41.217Z,39.26
2022-08-03T08:49:09.656Z,38.88
2022-08-03T08:51:59.695Z,38.40
2022-08-03T08:54:30.624Z,37.96
2022-08-03T08:57:12.445Z,37.73
2022-08-03T08:59:57.381Z,37.31
2022-08-03T09:02:25.551Z,36.90
2022-08-03T09:04:53.629Z,36.69
2022-08-03T09:07:21.507Z,36.53
2022-08-03T09:10:08.297Z,36.40
2022-08-03T09:12:46.418Z,36.02
2022-08-03T09:15:27.804Z,35.83
2022-08-03T09:17:57.651Z,35.52
2022-08-03T09:20:27.322Z,35.48
2022-08-03T09:22:55.796Z,35.68
2022-08-03T09:25:43.661Z,35.79
2022-08-03T09:28:33.713Z,35.81
2022-08-03T09:31:04.274Z,35.92
2022-08-03T09:33:36.041Z,36.13
2022-08-03T09:36:04.296Z,36.47
2022-08-03T09:38:31.642Z,36.75
2022-08-03T09:41:00.655Z,36.52
2022-08-03T09:43:29.249Z,35.83
2022-08-03T09:46:05.063Z,35.34
2022-08-03T09:48:34.603Z,34.85
2022-08-03T09:51:13.266Z,34.95
2022-08-03T09:53:58.758Z,35.35
2022-08-03T09:56:40.206Z,35.74
2022-08-03T09:59:10.087Z,35.92
2022-08-03T10:01:41.300Z,36.22
2022-08-03T10:04:14.831Z,36.54
2022-08-03T10:07:03.925Z,36.71
2022-08-03T10:09:33.251Z,36.67
2022-08-03T10:12:09.580Z,36.63
2022-08-03T10:14:39.297Z,36.74
2022-08-03T10:17:06.678Z,36.77
2022-08-03T10:19:34.850Z,36.77
2022-08-03T10:22:30.574Z,36.59
2022-08-03T10:25:06.977Z,36.43
2022-08-03T10:27:40.280Z,36.10
2022-08-03T10:30:11.337Z,35.83
2022-08-03T10:32:52.538Z,35.68
2022-08-03T10:35:24.051Z,35.49
2022-08-03T10:38:04.008Z,35.32
2022-08-03T10:40:48.232Z,35.25
2022-08-03T10:43:30.328Z,35.05
2022-08-03T10:46:05.017Z,35.01
2022-08-03T10:48:35.264Z,35.05
2022-08-03T10:51:05.970Z,34.96
2022-08-03T10:53:39.246Z,34.73
2022-08-03T10:56:49.835Z,34.27
2022-08-03T10:59:48.170Z,33.95
2022-08-03T11:02:16.462Z,33.79
2022-08-03T11:04:46.953Z,33.66
2022-08-03T11:07:23.517Z,33.60
2022-08-03T11:09:53.738Z,33.35
2022-08-03T11:12:31.297Z,33.14
2022-08-03T11:15:03.423Z,33.01
2022-08-03T11:17:32.510Z,32.99
2022-08-03T11:20:00.580Z,33.01
2022-08-03T11:22:52.154Z,33.03
2022-08-03T11:25:53.662Z,32.87
2022-08-03T11:28:34.071Z,32.66
2022-08-03T11:31:48.875Z,32.53
2022-08-03T11:34:16.694Z,32.40
2022-08-03T11:37:20.069Z,32.46
2022-08-03T11:39:53.099Z,32.54
2022-08-03T11:42:26.606Z,32.58
2022-08-03T11:44:57.266Z,32.66
2022-08-03T11:47:28.022Z,32.72
2022-08-03T11:50:00.984Z,32.75
2022-08-03T11:52:36.767Z,32.75
2022-08-03T11:55:13.975Z,32.68
2022-08-03T11:59:11.284Z,32.62
2022-08-03T12:00:36.263Z,32.54
2022-08-03T12:03:13.359Z,32.52
2022-08-03T12:05:51.167Z,32.55
2022-08-03T12:08:33.736Z,32.49
2022-08-03T12:11:06.768Z,32.37
2022-08-03T12:14:05.774Z,32.32
2022-08-03T12:16:38.326Z,32.36
2022-08-03T12:19:08.437Z,32.28
2022-08-03T12:21:57.402Z,32.18
2022-08-03T12:24:28.102Z,32.08
2022-08-03T12:26:59.336Z,32.08
2022-08-03T12:29:29.348Z,32.09
2022-08-03T12:31:57.829Z,32.13
2022-08-03T12:34:47.439Z,32.19
2022-08-03T12:37:23.377Z,32.22
2022-08-03T12:40:03.577Z,32.21
2022-08-03T12:42:36.784Z,32.17
2022-08-03T12:45:24.038Z,32.14
2022-08-03T12:48:00.769Z,32.13
2022-08-03T12:50:33.357Z,32.07
2022-08-03T12:53:07.927Z,32.00
2022-08-03T12:55:56.353Z,32.05
2022-08-03T12:58:33.445Z,32.30
2022-08-03T13:01:05.177Z,32.56
2022-08-03T13:03:46.002Z,32.53
2022-08-03T13:06:22.873Z,32.52
2022-08-03T13:09:02.379Z,32.50
2022-08-03T13:11:58.079Z,32.39
2022-08-03T13:14:20.465Z,32.28
2022-08-03T13:16:49.128Z,32.28
2022-08-03T13:19:16.457Z,32.27
2022-08-03T13:22:03.527Z,32.22
2022-08-03T13:24:33.346Z,32.16
2022-08-03T13:28:00.937Z,32.17
2022-08-03T13:29:50.146Z,32.13
2022-08-03T13:32:20.782Z,32.06
2022-08-03T13:34:49.404Z,32.04
2022-08-03T13:37:18.361Z,32.06
2022-08-03T13:39:48.246Z,32.02
2022-08-03T13:42:27.923Z,32.02
2022-08-03T13:44:55.574Z,32.06
2022-08-03T13:47:23.178Z,32.05
2022-08-03T13:49:54.289Z,32.04
2022-08-03T13:52:32.368Z,32.02
2022-08-03T13:55:00.431Z,31.96
2022-08-03T13:58:03.732Z,31.97
2022-08-03T14:00:27.280Z,32.02
2022-08-03T14:03:16.150Z,32.03
2022-08-03T14:05:48.188Z,32.06
2022-08-03T14:08:16.537Z,32.09
2022-08-03T14:10:44.882Z,32.09
2022-08-03T14:13:16.976Z,32.06
2022-08-03T14:15:49.982Z,32.01
2022-08-03T14:18:27.774Z,31.95
2022-08-03T14:21:01.992Z,31.94
2022-08-03T14:23:33.661Z,31.90
2022-08-03T14:26:01.450Z,31.86
2022-08-03T14:28:29.793Z,31.89
2022-08-03T14:30:57.557Z,31.92
2022-08-03T14:33:25.230Z,31.93
2022-08-03T14:35:53.291Z,31.91
2022-08-03T14:38:21.288Z,31.90
2022-08-03T14:40:50.124Z,31.90
2022-08-03T14:43:18.409Z,31.86
2022-08-03T14:45:46.056Z,31.82
2022-08-03T14:50:29.531Z,31.77
2022-08-03T14:51:01.359Z,31.56
2022-08-03T14:53:29.934Z,31.48
2022-08-03T14:55:57.422Z,31.48
2022-08-03T14:58:27.785Z,31.49
2022-08-03T15:00:55.821Z,31.53
2022-08-03T15:03:25.227Z,31.58
2022-08-03T15:05:54.639Z,31.58
2022-08-03T15:08:23.978Z,31.59
2022-08-03T15:10:52.229Z,31.61
2022-08-03T15:13:22.662Z,31.61
2022-08-03T15:15:51.491Z,31.63
2022-08-03T15:18:19.837Z,31.66
2022-08-03T15:20:51.297Z,31.68
2022-08-03T15:23:19.203Z,31.65
2022-08-03T15:26:02.348Z,31.59
2022-08-03T15:28:37.285Z,31.57
2022-08-03T15:31:06.537Z,31.55
2022-08-03T15:33:35.348Z,31.53
2022-08-03T15:36:04.346Z,31.53
2022-08-03T15:38:31.637Z,31.55
2022-08-03T15:40:59.444Z,31.56
2022-08-03T15:43:26.960Z,31.54
2022-08-03T15:46:26.584Z,31.53
2022-08-03T15:48:43.135Z,31.44
2022-08-03T15:51:10.671Z,31.35
2022-08-03T15:53:38.592Z,31.30
2022-08-03T15:56:13.263Z,31.26
2022-08-03T15:59:11.424Z,31.24
2022-08-03T16:01:36.183Z,31.23
2022-08-03T16:04:10.269Z,31.22
2022-08-03T16:06:42.541Z,31.22
2022-08-03T16:09:23.471Z,31.21
2022-08-03T16:11:59.128Z,31.20
2022-08-03T16:14:34.359Z,31.21
2022-08-03T16:17:05.925Z,31.24
2022-08-03T16:19:33.940Z,31.24
2022-08-03T16:22:03.571Z,31.23
2022-08-03T16:24:31.890Z,31.20
2022-08-03T16:27:00.454Z,31.21
2022-08-03T16:29:28.467Z,31.21
2022-08-03T16:31:57.925Z,31.20
2022-08-03T16:34:25.882Z,31.13
2022-08-03T16:36:54.245Z,31.12
2022-08-03T16:39:22.990Z,31.11
2022-08-03T16:41:54.143Z,31.07
2022-08-03T16:44:30.967Z,31.06
2022-08-03T16:46:59.689Z,31.07
2022-08-03T16:49:53.133Z,31.07
2022-08-03T16:52:16.872Z,31.06
2022-08-03T16:54:52.718Z,31.04
2022-08-03T16:57:58.903Z,31.02
2022-08-03T17:00:12.159Z,30.97
2022-08-03T17:03:25.589Z,30.92
2022-08-03T17:06:10.384Z,30.88
2022-08-03T17:09:10.284Z,30.84
2022-08-03T17:11:57.951Z,30.80
2022-08-03T17:14:49.646Z,30.78
2022-08-03T17:17:47.641Z,30.75
2022-08-03T17:20:58.120Z,30.68
2022-08-03T17:24:01.073Z,30.61
2022-08-03T17:27:08.869Z,30.53
2022-08-03T17:30:12.141Z,30.43
2022-08-03T17:33:20.225Z,30.30
2022-08-03T17:36:06.497Z,30.19
2022-08-03T17:39:27.021Z,30.09
2022-08-03T17:42:30.009Z,30.00
2022-08-03T17:45:06.766Z,29.92
2022-08-03T17:47:43.653Z,29.85
2022-08-03T17:50:24.031Z,29.77
2022-08-03T17:53:15.362Z,29.69
2022-08-03T17:56:40.717Z,29.58
2022-08-03T17:59:51.336Z,29.50
2022-08-03T18:02:55.486Z,29.42
2022-08-03T18:06:10.347Z,29.35
2022-08-03T18:08:36.970Z,29.24
2022-08-03T18:11:14.424Z,29.17
2022-08-03T18:14:05.800Z,29.10
2022-08-03T18:16:52.057Z,29.00
2022-08-03T18:20:02.008Z,28.95
2022-08-03T18:22:11.903Z,28.87
2022-08-03T18:24:43.650Z,28.81
2022-08-03T18:27:15.571Z,28.74
2022-08-03T18:29:45.881Z,28.69
2022-08-03T18:32:26.324Z,28.63
2022-08-03T18:35:00.769Z,28.54
2022-08-03T18:37:29.848Z,28.48
2022-08-03T18:40:03.938Z,28.41
2022-08-03T18:42:54.736Z,28.35
2022-08-03T18:45:57.328Z,28.29
2022-08-03T18:49:13.560Z,28.23
2022-08-03T18:51:56.420Z,28.16
2022-08-03T18:54:58.852Z,28.11
2022-08-03T19:00:24.982Z,28.01
2022-08-03T19:03:20.619Z,27.94
2022-08-03T19:06:19.375Z,27.85
2022-08-03T19:09:15.627Z,27.78
2022-08-03T19:12:14.281Z,27.71
2022-08-03T19:14:44.339Z,27.68
2022-08-03T19:17:22.056Z,27.66
2022-08-03T19:20:05.825Z,27.64
2022-08-03T19:22:36.608Z,27.61
2022-08-03T19:25:07.412Z,27.57
2022-08-03T19:27:49.627Z,27.53
2022-08-03T19:30:39.016Z,27.47
2022-08-03T19:33:47.102Z,27.38
2022-08-03T19:36:28.348Z,27.30
2022-08-03T19:38:58.755Z,27.24
2022-08-03T19:41:42.103Z,27.23
2022-08-03T19:44:20.313Z,27.21
2022-08-03T19:47:00.399Z,27.17
2022-08-03T19:49:59.990Z,27.12
2022-08-03T19:52:31.533Z,27.06
2022-08-03T19:55:01.883Z,27.04
2022-08-03T19:57:34.203Z,26.98
2022-08-03T20:00:10.743Z,26.92
2022-08-03T20:03:04.929Z,26.87
2022-08-03T20:06:22.459Z,26.79
2022-08-03T20:09:13.472Z,26.72
2022-08-03T20:15:45.534Z,26.50
2022-08-03T20:18:32.720Z,26.47
2022-08-03T20:30:05.290Z,26.38
2022-08-03T20:32:29.744Z,26.28
2022-08-03T20:34:58.663Z,26.20
2022-08-03T20:37:26.532Z,26.16
2022-08-03T20:39:59.739Z,26.17
2022-08-03T20:42:27.040Z,26.17
2022-08-03T20:45:04.383Z,26.18
2022-08-03T20:47:36.543Z,26.18
2022-08-03T20:50:10.583Z,26.20
2022-08-03T20:52:49.310Z,26.17
2022-08-03T20:55:47.136Z,26.14
2022-08-03T20:58:09.918Z,26.11
2022-08-03T21:00:39.280Z,26.09
2022-08-03T21:03:08.973Z,26.04
2022-08-03T21:08:37.634Z,25.91
2022-08-03T21:11:18.809Z,25.82
2022-08-03T21:13:08.028Z,26.00
2022-08-03T21:13:55.144Z,25.75
2022-08-03T21:16:27.428Z,25.64
2022-08-03T21:18:58.298Z,25.53
2022-08-03T21:21:31.352Z,25.42
2022-08-03T21:24:00.122Z,25.36
2022-08-03T21:26:33.424Z,25.28
2022-08-03T21:29:02.173Z,25.19
2022-08-03T21:31:30.027Z,25.11
2022-08-03T21:34:01.176Z,25.09
2022-08-03T21:36:32.875Z,25.10
2022-08-03T21:39:01.059Z,25.16
2022-08-03T21:41:31.601Z,25.20
2022-08-03T21:44:00.523Z,25.19
2022-08-03T21:46:40.449Z,25.19
2022-08-03T21:50:04.978Z,25.19
2022-08-03T21:52:02.620Z,25.19
2022-08-03T21:54:35.899Z,25.18
2022-08-03T21:57:08.587Z,25.14
2022-08-03T21:59:39.970Z,25.13
2022-08-03T22:02:24.009Z,25.13
2022-08-03T22:04:56.298Z,25.11
2022-08-03T22:07:27.403Z,25.08
2022-08-03T22:09:56.238Z,25.05
2022-08-03T22:12:26.072Z,25.04
2022-08-03T22:15:01.231Z,24.98
2022-08-03T22:17:55.330Z,24.95
2022-08-03T22:20:20.936Z,24.91
2022-08-03T22:22:55.782Z,24.86
2022-08-03T22:25:29.359Z,24.80
2022-08-03T22:28:00.574Z,24.74
2022-08-03T22:30:31.403Z,24.72
2022-08-03T22:33:00.055Z,24.70
2022-08-03T22:35:28.734Z,24.70
2022-08-03T22:37:58.290Z,24.67
2022-08-03T22:40:27.846Z,24.62
2022-08-03T22:42:56.478Z,24.60
2022-08-03T22:46:07.647Z,24.60
2022-08-03T22:48:14.985Z,24.60
2022-08-03T22:50:44.281Z,24.58
2022-08-03T22:53:21.163Z,24.55
2022-08-03T22:55:49.870Z,24.52
2022-08-03T22:58:20.402Z,24.47
2022-08-03T23:00:58.282Z,24.45
2022-08-03T23:04:00.924Z,24.43
2022-08-03T23:06:21.530Z,24.39
2022-08-03T23:08:50.272Z,24.30
2022-08-03T23:11:18.237Z,24.22
2022-08-03T23:13:52.241Z,24.22
2022-08-03T23:16:29.706Z,24.18
2022-08-03T23:18:59.609Z,24.15
2022-08-03T23:22:00.702Z,24.14
2022-08-03T23:24:26.109Z,24.16
2022-08-03T23:26:58.944Z,24.15
2022-08-03T23:29:29.150Z,24.14
2022-08-03T23:31:58.976Z,24.12
2022-08-03T23:34:47.215Z,24.11
2022-08-03T23:37:16.990Z,24.09
2022-08-03T23:39:47.414Z,24.07
2022-08-03T23:42:17.745Z,24.02
2022-08-03T23:44:46.233Z,23.99
2022-08-03T23:47:16.482Z,23.98
2022-08-03T23:49:44.781Z,23.94
2022-08-03T23:52:24.174Z,23.90
2022-08-03T23:55:04.004Z,23.84
2022-08-03T23:57:53.141Z,23.74
